sensor_id;sensor_type;location;lat;lon;timestamp;pressure;altitude;pressure_sealevel;temperature;humidity
72636;BME280;60679;48.888;15.544;2022-09-03T00:03:48;96173.06;;;9.88;60.28
72636;BME280;60679;48.888;15.544;2022-09-03T00:13:39;96162.78;;;9.78;60.62
72636;BME280;60679;48.888;15.544;2022-09-03T00:18:42;96162.81;;;9.71;60.71
72636;BME280;60679;48.888;15.544;2022-09-03T00:23:39;96166.78;;;9.69;60.87
72636;BME280;60679;48.888;15.544;2022-09-03T00:28:48;96168.72;;;9.62;61.14
72636;BME280;60679;48.888;15.544;2022-09-03T00:33:38;96162.72;;;9.60;61.39
72636;BME280;60679;48.888;15.544;2022-09-03T00:38:37;96158.59;;;9.57;61.35
72636;BME280;60679;48.888;15.544;2022-09-03T00:53:56;96148.38;;;9.41;61.96
72636;BME280;60679;48.888;15.544;2022-09-03T00:58:57;96146.16;;;9.32;62.21
72636;BME280;60679;48.888;15.544;2022-09-03T01:13:49;96146.47;;;9.17;62.60
72636;BME280;60679;48.888;15.544;2022-09-03T01:18:49;96154.00;;;9.08;62.93
72636;BME280;60679;48.888;15.544;2022-09-03T01:28:49;96159.16;;;9.10;63.09
72636;BME280;60679;48.888;15.544;2022-09-03T01:33:44;96154.19;;;9.07;63.40
72636;BME280;60679;48.888;15.544;2022-09-03T01:39:01;96151.09;;;9.03;63.37
72636;BME280;60679;48.888;15.544;2022-09-03T01:43:44;96150.09;;;8.98;63.51
72636;BME280;60679;48.888;15.544;2022-09-03T01:58:39;96154.72;;;8.91;64.04
72636;BME280;60679;48.888;15.544;2022-09-03T02:03:38;96160.75;;;8.86;64.06
72636;BME280;60679;48.888;15.544;2022-09-03T02:08:37;96158.69;;;8.82;64.42
72636;BME280;60679;48.888;15.544;2022-09-03T02:13:56;96160.38;;;8.76;64.42
72636;BME280;60679;48.888;15.544;2022-09-03T02:19:06;96171.59;;;8.73;64.44
72636;BME280;60679;48.888;15.544;2022-09-03T02:23:39;96161.66;;;8.67;64.79
72636;BME280;60679;48.888;15.544;2022-09-03T02:28:36;96162.72;;;8.66;64.65
72636;BME280;60679;48.888;15.544;2022-09-03T02:31:02;96162.91;;;8.64;64.95
72636;BME280;60679;48.888;15.544;2022-09-03T02:33:47;96165.22;;;8.61;64.82
72636;BME280;60679;48.888;15.544;2022-09-03T02:38:37;96166.69;;;8.57;64.63
72636;BME280;60679;48.888;15.544;2022-09-03T02:43:50;96166.50;;;8.52;65.21
72636;BME280;60679;48.888;15.544;2022-09-03T02:48:36;96161.75;;;8.47;65.14
72636;BME280;60679;48.888;15.544;2022-09-03T02:51:02;96158.47;;;8.45;64.98
72636;BME280;60679;48.888;15.544;2022-09-03T02:53:36;96160.75;;;8.42;65.00
72636;BME280;60679;48.888;15.544;2022-09-03T02:56:02;96157.63;;;8.38;65.20
72636;BME280;60679;48.888;15.544;2022-09-03T02:58:34;96157.88;;;8.37;65.38
72636;BME280;60679;48.888;15.544;2022-09-03T03:01:00;96163.47;;;8.35;65.51
72636;BME280;60679;48.888;15.544;2022-09-03T03:03:36;96169.88;;;8.34;65.35
72636;BME280;60679;48.888;15.544;2022-09-03T03:06:03;96166.38;;;8.34;65.38
72636;BME280;60679;48.888;15.544;2022-09-03T03:08:43;96166.59;;;8.32;65.50
72636;BME280;60679;48.888;15.544;2022-09-03T03:13:36;96169.91;;;8.28;65.73
72636;BME280;60679;48.888;15.544;2022-09-03T03:16:04;96174.63;;;8.26;65.85
72636;BME280;60679;48.888;15.544;2022-09-03T03:18:43;96167.22;;;8.21;65.63
72636;BME280;60679;48.888;15.544;2022-09-03T03:23:37;96165.38;;;8.15;66.02
72636;BME280;60679;48.888;15.544;2022-09-03T03:28:54;96174.28;;;8.09;66.14
72636;BME280;60679;48.888;15.544;2022-09-03T03:33:37;96172.19;;;8.04;66.13
72636;BME280;60679;48.888;15.544;2022-09-03T03:38:36;96180.06;;;7.99;66.10
72636;BME280;60679;48.888;15.544;2022-09-03T03:43:55;96175.34;;;7.95;66.25
72636;BME280;60679;48.888;15.544;2022-09-03T03:48:35;96169.53;;;7.85;66.56
72636;BME280;60679;48.888;15.544;2022-09-03T03:51:03;96159.22;;;7.82;66.46
72636;BME280;60679;48.888;15.544;2022-09-03T03:53:56;96152.81;;;7.83;66.54
72636;BME280;60679;48.888;15.544;2022-09-03T03:58:36;96156.13;;;7.78;66.66
72636;BME280;60679;48.888;15.544;2022-09-03T04:01:07;96151.59;;;7.72;66.60
72636;BME280;60679;48.888;15.544;2022-09-03T04:03:39;96160.91;;;7.70;66.66
72636;BME280;60679;48.888;15.544;2022-09-03T04:08:41;96163.59;;;7.70;66.73
72636;BME280;60679;48.888;15.544;2022-09-03T04:13:38;96162.16;;;7.67;66.80
72636;BME280;60679;48.888;15.544;2022-09-03T04:18:37;96172.88;;;7.74;66.68
72636;BME280;60679;48.888;15.544;2022-09-03T04:23:38;96169.38;;;7.73;66.83
72636;BME280;60679;48.888;15.544;2022-09-03T04:28:36;96175.56;;;7.67;66.82
72636;BME280;60679;48.888;15.544;2022-09-03T04:31:04;96189.22;;;7.66;66.76
72636;BME280;60679;48.888;15.544;2022-09-03T04:33:39;96187.97;;;7.68;67.12
72636;BME280;60679;48.888;15.544;2022-09-03T04:38:38;96180.94;;;7.74;67.00
72636;BME280;60679;48.888;15.544;2022-09-03T04:43:37;96188.59;;;7.83;67.02
72636;BME280;60679;48.888;15.544;2022-09-03T04:48:38;96192.50;;;7.94;67.08
72636;BME280;60679;48.888;15.544;2022-09-03T04:53:39;96194.75;;;8.03;67.08
72636;BME280;60679;48.888;15.544;2022-09-03T04:58:36;96203.41;;;8.19;66.89
72636;BME280;60679;48.888;15.544;2022-09-03T05:01:07;96199.88;;;8.25;66.56
72636;BME280;60679;48.888;15.544;2022-09-03T05:03:42;96210.00;;;8.36;66.65
72636;BME280;60679;48.888;15.544;2022-09-03T05:08:36;96214.53;;;8.48;66.59
72636;BME280;60679;48.888;15.544;2022-09-03T05:11:08;96211.41;;;8.58;66.61
72636;BME280;60679;48.888;15.544;2022-09-03T05:13:46;96199.16;;;8.68;66.83
72636;BME280;60679;48.888;15.544;2022-09-03T05:18:35;96201.75;;;8.88;66.46
72636;BME280;60679;48.888;15.544;2022-09-03T05:21:03;96195.09;;;8.97;66.53
72636;BME280;60679;48.888;15.544;2022-09-03T05:23:51;96201.06;;;9.06;66.34
72636;BME280;60679;48.888;15.544;2022-09-03T05:28:38;96208.78;;;9.27;66.39
72636;BME280;60679;48.888;15.544;2022-09-03T05:33:37;96207.97;;;9.51;66.35
72636;BME280;60679;48.888;15.544;2022-09-03T05:38:37;96205.91;;;9.78;66.16
72636;BME280;60679;48.888;15.544;2022-09-03T05:43:38;96202.16;;;10.04;66.03
72636;BME280;60679;48.888;15.544;2022-09-03T05:48:36;96197.00;;;10.27;65.91
72636;BME280;60679;48.888;15.544;2022-09-03T05:51:10;96187.09;;;10.39;65.65
72636;BME280;60679;48.888;15.544;2022-09-03T05:53:47;96189.66;;;10.52;65.73
72636;BME280;60679;48.888;15.544;2022-09-03T05:58:38;96181.47;;;10.77;65.79
72636;BME280;60679;48.888;15.544;2022-09-03T06:03:35;96192.84;;;10.97;65.64
72636;BME280;60679;48.888;15.544;2022-09-03T06:06:01;96189.38;;;11.08;65.61
72636;BME280;60679;48.888;15.544;2022-09-03T06:08:36;96191.50;;;11.18;65.51
72636;BME280;60679;48.888;15.544;2022-09-03T06:13:36;96192.28;;;11.36;65.56
72636;BME280;60679;48.888;15.544;2022-09-03T06:16:04;96192.78;;;11.45;65.46
72636;BME280;60679;48.888;15.544;2022-09-03T06:18:39;96197.88;;;11.53;65.33
72636;BME280;60679;48.888;15.544;2022-09-03T06:23:36;96184.31;;;11.71;65.24
72636;BME280;60679;48.888;15.544;2022-09-03T06:28:51;96189.16;;;11.92;64.98
72636;BME280;60679;48.888;15.544;2022-09-03T06:33:36;96195.50;;;12.09;64.85
72636;BME280;60679;48.888;15.544;2022-09-03T06:36:03;96193.66;;;12.22;64.92
72636;BME280;60679;48.888;15.544;2022-09-03T06:49:07;96186.72;;;12.77;64.47
72636;BME280;60679;48.888;15.544;2022-09-03T06:53:47;96192.56;;;12.97;64.15
72636;BME280;60679;48.888;15.544;2022-09-03T06:58:38;96183.47;;;13.15;64.18
72636;BME280;60679;48.888;15.544;2022-09-03T07:03:46;96188.78;;;13.38;63.94
72636;BME280;60679;48.888;15.544;2022-09-03T07:19:04;96177.44;;;14.19;63.18
72636;BME280;60679;48.888;15.544;2022-09-03T07:23:44;96171.56;;;14.44;62.95
72636;BME280;60679;48.888;15.544;2022-09-03T07:28:38;96169.72;;;14.66;62.77
72636;BME280;60679;48.888;15.544;2022-09-03T07:33:44;96171.88;;;14.86;62.37
72636;BME280;60679;48.888;15.544;2022-09-03T07:49:04;96167.44;;;15.77;61.20
72636;BME280;60679;48.888;15.544;2022-09-03T08:04:05;96181.81;;;17.35;59.28
72636;BME280;60679;48.888;15.544;2022-09-03T08:19:04;96192.06;;;19.98;56.49
72636;BME280;60679;48.888;15.544;2022-09-03T08:23:42;96185.41;;;21.01;55.03
72636;BME280;60679;48.888;15.544;2022-09-03T08:28:41;96196.06;;;21.31;54.73
72636;BME280;60679;48.888;15.544;2022-09-03T08:33:38;96191.78;;;21.25;54.74
72636;BME280;60679;48.888;15.544;2022-09-03T08:38:36;96181.22;;;22.30;52.79
72636;BME280;60679;48.888;15.544;2022-09-03T08:44:14;96184.13;;;23.44;50.68
72636;BME280;60679;48.888;15.544;2022-09-03T08:48:46;96169.66;;;23.88;50.12
72636;BME280;60679;48.888;15.544;2022-09-03T08:53:50;96155.44;;;24.75;48.45
72636;BME280;60679;48.888;15.544;2022-09-03T08:58:50;96159.41;;;25.61;47.04
72636;BME280;60679;48.888;15.544;2022-09-03T09:03:55;96162.41;;;26.25;46.20
72636;BME280;60679;48.888;15.544;2022-09-03T09:23:40;96173.41;;;28.36;41.94
72636;BME280;60679;48.888;15.544;2022-09-03T09:28:39;96167.28;;;29.29;40.50
72636;BME280;60679;48.888;15.544;2022-09-03T09:33:39;96159.31;;;30.40;38.98
72636;BME280;60679;48.888;15.544;2022-09-03T09:49:02;96177.84;;;32.98;34.50
72636;BME280;60679;48.888;15.544;2022-09-03T10:04:12;96161.97;;;34.75;31.50
72636;BME280;60679;48.888;15.544;2022-09-03T10:08:40;96173.13;;;36.23;29.17
72636;BME280;60679;48.888;15.544;2022-09-03T10:24:36;96158.13;;;39.97;24.21
72636;BME280;60679;48.888;15.544;2022-09-03T10:44:08;96151.94;;;46.03;17.85
72636;BME280;60679;48.888;15.544;2022-09-03T10:49:12;96141.06;;;46.91;17.14
72636;BME280;60679;48.888;15.544;2022-09-03T10:58:57;96140.19;;;49.30;14.97
72636;BME280;60679;48.888;15.544;2022-09-03T11:13:53;96129.84;;;51.99;12.21
72636;BME280;60679;48.888;15.544;2022-09-03T11:18:41;96124.59;;;53.65;11.69
72636;BME280;60679;48.888;15.544;2022-09-03T11:23:40;96117.41;;;53.29;11.14
72636;BME280;60679;48.888;15.544;2022-09-03T11:33:40;96122.75;;;54.30;10.24
72636;BME280;60679;48.888;15.544;2022-09-03T11:38:33;96125.34;;;55.40;9.71
72636;BME280;60679;48.888;15.544;2022-09-03T11:41:13;96119.06;;;56.14;9.20
72636;BME280;60679;48.888;15.544;2022-09-03T11:43:47;96118.56;;;55.77;9.21
72636;BME280;60679;48.888;15.544;2022-09-03T11:48:45;96117.94;;;55.23;8.95
72636;BME280;60679;48.888;15.544;2022-09-03T11:53:35;96110.91;;;54.28;9.88
72636;BME280;60679;48.888;15.544;2022-09-03T12:03:50;96111.44;;;55.61;8.48
